createdAt,value
2023-02-03T00:00:34.807Z,12.70
2023-02-03T00:01:34.813Z,12.30
2023-02-03T00:02:34.752Z,13.10
2023-02-03T00:03:34.720Z,12.40
2023-02-03T00:04:34.692Z,12.10
2023-02-03T00:05:34.665Z,11.60
2023-02-03T00:06:34.647Z,12.10
2023-02-03T00:07:34.605Z,11.70
2023-02-03T00:08:34.581Z,11.80
2023-02-03T00:09:34.553Z,13.20
2023-02-03T00:10:34.538Z,12.60
2023-02-03T00:11:34.522Z,13.20
2023-02-03T00:12:34.479Z,12.50
2023-02-03T00:13:34.449Z,12.60
2023-02-03T00:14:34.421Z,11.90
2023-02-03T00:15:34.397Z,13.30
2023-02-03T00:16:34.372Z,11.90
2023-02-03T00:17:34.352Z,12.00
2023-02-03T00:18:34.313Z,12.00
2023-02-03T00:19:34.282Z,11.60
2023-02-03T00:20:34.254Z,12.00
2023-02-03T00:21:34.227Z,12.70
2023-02-03T00:22:34.199Z,11.90
2023-02-03T00:23:34.179Z,11.70
2023-02-03T00:24:34.147Z,12.10
2023-02-03T00:25:34.119Z,13.00
2023-02-03T00:26:34.092Z,11.60
2023-02-03T00:27:34.067Z,11.20
2023-02-03T00:28:34.035Z,11.60
2023-02-03T00:29:34.021Z,11.70
2023-02-03T00:30:33.980Z,12.00
2023-02-03T00:31:34.048Z,11.60
2023-02-03T00:32:33.952Z,11.60
2023-02-03T00:33:33.935Z,11.20
2023-02-03T00:34:33.876Z,10.60
2023-02-03T00:35:33.849Z,12.80
2023-02-03T00:36:33.820Z,12.20
2023-02-03T00:37:33.791Z,11.30
2023-02-03T00:38:33.767Z,11.60
2023-02-03T00:39:33.735Z,11.80
2023-02-03T00:40:33.707Z,11.40
2023-02-03T00:41:33.683Z,11.90
2023-02-03T00:42:33.651Z,12.10
2023-02-03T00:43:33.626Z,11.30
2023-02-03T00:44:33.599Z,11.90
2023-02-03T00:45:33.603Z,11.60
2023-02-03T00:46:33.543Z,12.30
2023-02-03T00:47:33.517Z,11.70
2023-02-03T00:48:33.504Z,11.80
2023-02-03T00:49:33.480Z,11.40
2023-02-03T00:50:33.435Z,12.20
2023-02-03T00:51:33.424Z,11.30
2023-02-03T00:52:33.379Z,11.30
2023-02-03T00:53:33.353Z,12.00
2023-02-03T00:54:33.804Z,11.10
2023-02-03T00:55:33.298Z,11.20
2023-02-03T00:56:33.271Z,10.60
2023-02-03T00:57:33.254Z,11.10
2023-02-03T00:58:33.219Z,10.70
2023-02-03T00:59:33.197Z,11.30
2023-02-03T01:00:33.164Z,10.50
2023-02-03T01:01:33.199Z,11.10
2023-02-03T01:02:33.182Z,11.00
2023-02-03T01:03:33.082Z,10.90
2023-02-03T01:04:33.053Z,10.40
2023-02-03T01:05:33.047Z,11.00
2023-02-03T01:06:32.997Z,11.30
2023-02-03T01:07:32.987Z,10.20
2023-02-03T01:08:32.950Z,10.60
2023-02-03T01:09:32.916Z,10.20
2023-02-03T01:10:32.903Z,11.10
2023-02-03T01:11:32.888Z,10.70
2023-02-03T01:12:32.837Z,10.30
2023-02-03T01:13:32.842Z,10.80
2023-02-03T01:14:32.781Z,9.90
2023-02-03T01:15:32.752Z,10.60
2023-02-03T01:16:32.767Z,10.60
2023-02-03T01:17:32.709Z,10.10
2023-02-03T01:18:32.676Z,10.60
2023-02-03T01:19:32.654Z,9.60
2023-02-03T01:20:32.616Z,9.90
2023-02-03T01:21:32.610Z,9.40
2023-02-03T01:22:32.566Z,10.00
2023-02-03T01:23:32.540Z,10.00
2023-02-03T01:24:32.521Z,10.40
2023-02-03T01:25:32.485Z,9.80
2023-02-03T01:26:32.452Z,10.40
2023-02-03T01:27:32.439Z,9.30
2023-02-03T01:28:32.399Z,9.20
2023-02-03T01:29:32.377Z,9.70
2023-02-03T01:30:32.440Z,9.30
2023-02-03T01:31:32.464Z,9.30
2023-02-03T01:32:32.296Z,9.40
2023-02-03T01:33:32.266Z,9.20
2023-02-03T01:34:32.235Z,8.80
2023-02-03T01:35:32.207Z,9.50
2023-02-03T01:36:32.180Z,9.20
2023-02-03T01:37:32.177Z,9.40
2023-02-03T01:38:32.128Z,9.10
2023-02-03T01:39:32.102Z,8.40
2023-02-03T01:40:32.082Z,9.30
2023-02-03T01:41:32.052Z,9.20
2023-02-03T01:42:32.020Z,8.40
2023-02-03T01:43:31.993Z,9.10
2023-02-03T01:44:31.961Z,8.70
2023-02-03T01:45:31.941Z,8.90
2023-02-03T01:46:31.997Z,9.40
2023-02-03T01:47:31.887Z,8.70
2023-02-03T01:48:31.858Z,9.30
2023-02-03T01:49:31.829Z,9.10
2023-02-03T01:50:31.830Z,9.80
2023-02-03T01:51:31.773Z,9.80
2023-02-03T01:52:31.745Z,9.00
2023-02-03T01:53:31.755Z,9.50
2023-02-03T01:54:31.697Z,9.20
2023-02-03T01:55:31.664Z,10.30
2023-02-03T01:56:31.635Z,10.80
2023-02-03T01:57:31.611Z,9.50
2023-02-03T01:58:31.587Z,10.00
2023-02-03T01:59:31.565Z,9.40
2023-02-03T02:00:31.531Z,9.10
2023-02-03T02:01:31.553Z,8.60
2023-02-03T02:02:31.501Z,9.30
2023-02-03T02:03:31.453Z,10.50
2023-02-03T02:04:31.424Z,9.40
2023-02-03T02:05:31.393Z,9.40
2023-02-03T02:06:31.362Z,9.40
2023-02-03T02:07:31.333Z,9.80
2023-02-03T02:08:31.309Z,9.70
2023-02-03T02:09:31.302Z,8.80
2023-02-03T02:10:31.308Z,9.40
2023-02-03T02:11:31.234Z,9.50
2023-02-03T02:12:31.196Z,9.50
2023-02-03T02:13:31.174Z,9.10
2023-02-03T02:14:31.144Z,9.50
2023-02-03T02:15:31.153Z,9.40
2023-02-03T02:16:31.096Z,9.20
2023-02-03T02:17:31.069Z,9.00
2023-02-03T02:18:31.037Z,9.40
2023-02-03T02:19:31.011Z,9.40
2023-02-03T02:20:30.983Z,9.00
2023-02-03T02:21:30.964Z,8.80
2023-02-03T02:22:30.938Z,9.00
2023-02-03T02:23:30.910Z,9.00
2023-02-03T02:24:30.871Z,9.10
2023-02-03T02:25:30.864Z,8.80
2023-02-03T02:26:30.820Z,9.00
2023-02-03T02:27:30.794Z,9.30
2023-02-03T02:28:30.763Z,8.90
2023-02-03T02:29:30.739Z,9.00
2023-02-03T02:30:30.820Z,9.00
2023-02-03T02:31:30.797Z,8.80
2023-02-03T02:32:30.651Z,9.10
2023-02-03T02:33:30.628Z,8.90
2023-02-03T02:34:30.601Z,8.90
2023-02-03T02:35:30.587Z,8.60
2023-02-03T02:36:30.551Z,8.80
2023-02-03T02:37:30.521Z,8.70
2023-02-03T02:38:30.499Z,8.80
2023-02-03T02:39:30.466Z,8.30
2023-02-03T02:40:30.437Z,8.30
2023-02-03T02:41:30.429Z,8.50
2023-02-03T02:42:30.392Z,8.60
2023-02-03T02:43:30.356Z,8.30
2023-02-03T02:44:30.330Z,8.30
2023-02-03T02:45:30.299Z,8.40
2023-02-03T02:46:30.357Z,8.60
2023-02-03T02:47:30.253Z,8.70
2023-02-03T02:48:30.220Z,8.40
2023-02-03T02:49:30.202Z,8.90
2023-02-03T02:50:30.161Z,7.80
2023-02-03T02:51:30.138Z,7.70
2023-02-03T02:52:30.109Z,7.70
2023-02-03T02:53:30.086Z,8.10
2023-02-03T02:54:30.061Z,7.40
2023-02-03T02:55:30.030Z,7.70
2023-02-03T02:56:30.001Z,7.30
2023-02-03T02:57:30.007Z,8.00
2023-02-03T02:58:29.949Z,7.20
2023-02-03T02:59:29.940Z,7.20
2023-02-03T03:00:29.890Z,6.50
2023-02-03T03:01:29.895Z,7.30
2023-02-03T03:02:29.840Z,6.80
2023-02-03T03:03:29.813Z,6.70
2023-02-03T03:04:29.824Z,6.40
2023-02-03T03:05:29.759Z,6.20
2023-02-03T03:06:29.731Z,5.80
2023-02-03T03:07:29.725Z,6.20
2023-02-03T03:08:29.674Z,5.90
2023-02-03T03:09:29.649Z,5.60
2023-02-03T03:10:29.623Z,5.80
2023-02-03T03:11:29.596Z,5.60
2023-02-03T03:12:29.564Z,6.10
2023-02-03T03:13:29.559Z,5.70
2023-02-03T03:14:29.511Z,5.70
2023-02-03T03:15:29.499Z,5.30
2023-02-03T03:16:29.455Z,5.30
2023-02-03T03:17:29.431Z,5.30
2023-02-03T03:18:29.407Z,5.20
2023-02-03T03:19:29.386Z,5.20
2023-02-03T03:20:29.482Z,5.00
2023-02-03T03:21:29.326Z,5.00
2023-02-03T03:22:29.291Z,4.70
2023-02-03T03:23:29.268Z,5.10
2023-02-03T03:24:29.242Z,5.80
2023-02-03T03:25:29.212Z,5.10
2023-02-03T03:26:29.188Z,5.30
2023-02-03T03:27:29.158Z,5.10
2023-02-03T03:28:29.129Z,4.40
2023-02-03T03:29:29.133Z,4.50
2023-02-03T03:30:29.336Z,4.70
2023-02-03T03:31:29.218Z,5.00
2023-02-03T03:32:29.021Z,4.90
2023-02-03T03:33:28.992Z,4.80
2023-02-03T03:34:28.965Z,5.20
2023-02-03T03:35:28.941Z,4.20
2023-02-03T03:36:28.914Z,5.00
2023-02-03T03:37:28.898Z,5.10
2023-02-03T03:38:28.858Z,4.40
2023-02-03T03:39:28.832Z,4.70
2023-02-03T03:40:28.979Z,4.60
2023-02-03T03:41:28.782Z,4.10
2023-02-03T03:42:31.290Z,4.00
2023-02-03T03:43:28.723Z,4.50
2023-02-03T03:44:28.692Z,3.90
2023-02-03T03:45:28.702Z,4.40
2023-02-03T03:46:28.663Z,4.10
2023-02-03T03:47:28.611Z,4.50
2023-02-03T03:48:28.589Z,4.50
2023-02-03T03:49:28.561Z,4.20
2023-02-03T03:50:28.796Z,4.60
2023-02-03T03:51:28.527Z,4.10
2023-02-03T03:52:28.472Z,4.80
2023-02-03T03:53:28.460Z,4.60
2023-02-03T03:54:28.420Z,4.20
2023-02-03T03:55:28.392Z,3.60
2023-02-03T03:56:28.367Z,4.30
2023-02-03T03:57:28.340Z,4.00
2023-02-03T03:58:28.312Z,4.30
2023-02-03T03:59:28.283Z,4.10
2023-02-03T04:00:28.545Z,4.00
2023-02-03T04:01:28.356Z,4.10
2023-02-03T04:02:28.259Z,4.50
2023-02-03T04:03:28.218Z,4.60
2023-02-03T04:04:28.148Z,3.90
2023-02-03T04:05:28.134Z,4.00
2023-02-03T04:06:28.091Z,4.30
2023-02-03T04:07:28.068Z,3.80
2023-02-03T04:08:28.037Z,3.80
2023-02-03T04:09:28.019Z,3.80
2023-02-03T04:10:28.317Z,3.90
2023-02-03T04:11:27.957Z,3.80
2023-02-03T04:12:27.928Z,3.80
2023-02-03T04:13:27.902Z,3.80
2023-02-03T04:14:27.874Z,4.50
2023-02-03T04:15:27.847Z,3.60
2023-02-03T04:16:27.906Z,4.40
2023-02-03T04:17:27.816Z,3.60
2023-02-03T04:18:27.764Z,3.60
2023-02-03T04:19:27.737Z,3.50
2023-02-03T04:20:28.098Z,3.70
2023-02-03T04:21:27.682Z,3.50
2023-02-03T04:22:27.657Z,3.40
2023-02-03T04:23:27.631Z,3.70
2023-02-03T04:24:27.657Z,3.60
2023-02-03T04:25:27.595Z,3.60
2023-02-03T04:26:27.554Z,3.30
2023-02-03T04:27:27.521Z,3.70
2023-02-03T04:28:27.490Z,3.70
2023-02-03T04:29:27.469Z,3.30
2023-02-03T04:30:27.687Z,3.00
2023-02-03T04:31:27.538Z,3.20
2023-02-03T04:32:27.403Z,3.90
2023-02-03T04:33:27.371Z,3.80
2023-02-03T04:34:27.332Z,3.30
2023-02-03T04:35:27.301Z,3.60
2023-02-03T04:36:27.272Z,3.40
2023-02-03T04:37:27.247Z,3.20
2023-02-03T04:38:27.218Z,3.30
2023-02-03T04:39:27.195Z,3.40
2023-02-03T04:40:27.448Z,3.80
2023-02-03T04:41:27.153Z,3.40
2023-02-03T04:42:27.112Z,4.00
2023-02-03T04:43:27.083Z,3.30
2023-02-03T04:44:27.053Z,3.70
2023-02-03T04:45:27.098Z,3.60
2023-02-03T04:46:27.002Z,3.60
2023-02-03T04:47:26.970Z,3.50
2023-02-03T04:48:26.947Z,4.40
2023-02-03T04:49:26.939Z,3.90
2023-02-03T04:50:27.142Z,3.80
2023-02-03T04:51:26.863Z,3.60
2023-02-03T04:52:26.838Z,3.50
2023-02-03T04:53:26.818Z,3.80
2023-02-03T04:54:26.793Z,4.00
2023-02-03T04:55:26.755Z,3.60
2023-02-03T04:56:26.734Z,3.60
2023-02-03T04:57:26.710Z,3.60
2023-02-03T04:58:26.678Z,3.90
2023-02-03T04:59:26.649Z,4.20
2023-02-03T05:00:27.021Z,4.20
2023-02-03T05:01:26.742Z,3.80
2023-02-03T05:02:26.564Z,3.70
2023-02-03T05:03:26.616Z,4.00
2023-02-03T05:04:26.521Z,3.90
2023-02-03T05:05:26.503Z,4.20
2023-02-03T05:06:26.470Z,3.40
2023-02-03T05:07:26.429Z,4.10
2023-02-03T05:08:26.406Z,4.00
2023-02-03T05:09:26.377Z,3.50
2023-02-03T05:10:26.714Z,3.50
2023-02-03T05:11:26.317Z,4.20
2023-02-03T05:12:26.292Z,3.90
2023-02-03T05:13:26.265Z,3.60
2023-02-03T05:14:26.237Z,3.50
2023-02-03T05:15:26.207Z,4.30
2023-02-03T05:16:26.201Z,3.80
2023-02-03T05:17:26.152Z,3.70
2023-02-03T05:18:26.129Z,3.60
2023-02-03T05:19:26.112Z,3.50
2023-02-03T05:20:26.392Z,3.50
2023-02-03T05:21:26.078Z,3.60
2023-02-03T05:22:26.031Z,3.70
2023-02-03T05:23:25.992Z,3.70
2023-02-03T05:24:25.961Z,3.70
2023-02-03T05:25:25.936Z,3.90
2023-02-03T05:26:25.910Z,3.80
2023-02-03T05:27:25.879Z,4.00
2023-02-03T05:28:25.854Z,3.60
2023-02-03T05:29:25.840Z,3.80
2023-02-03T05:30:26.270Z,3.50
2023-02-03T05:31:25.837Z,3.40
2023-02-03T05:32:25.746Z,3.80
2023-02-03T05:33:25.717Z,3.50
2023-02-03T05:34:25.695Z,3.50
2023-02-03T05:35:25.662Z,3.80
2023-02-03T05:36:25.642Z,3.40
2023-02-03T05:37:25.626Z,3.90
2023-02-03T05:38:25.586Z,4.10
2023-02-03T05:39:25.552Z,4.50
2023-02-03T05:40:26.011Z,4.20
2023-02-03T05:41:25.497Z,3.80
2023-02-03T05:42:25.474Z,4.00
2023-02-03T05:43:25.447Z,4.30
2023-02-03T05:44:25.427Z,3.90
2023-02-03T05:45:25.391Z,3.80
2023-02-03T05:46:25.364Z,4.30
2023-02-03T05:47:25.335Z,3.60
2023-02-03T05:48:25.306Z,3.70
2023-02-03T05:49:25.300Z,4.20
2023-02-03T05:50:25.518Z,4.20
2023-02-03T05:51:25.230Z,3.80
2023-02-03T05:52:25.203Z,4.30
2023-02-03T05:53:25.189Z,4.20
2023-02-03T05:54:25.156Z,4.10
2023-02-03T05:55:25.128Z,4.20
2023-02-03T05:56:25.091Z,4.10
2023-02-03T05:57:25.062Z,4.00
2023-02-03T05:58:25.038Z,3.80
2023-02-03T05:59:25.006Z,4.10
2023-02-03T06:00:25.371Z,4.30
2023-02-03T06:01:24.953Z,4.80
2023-02-03T06:02:24.925Z,4.50
2023-02-03T06:03:24.929Z,4.70
2023-02-03T06:04:24.925Z,4.40
2023-02-03T06:05:24.843Z,4.40
2023-02-03T06:06:24.817Z,4.10
2023-02-03T06:07:24.791Z,4.00
2023-02-03T06:08:24.761Z,3.90
2023-02-03T06:09:24.749Z,4.50
2023-02-03T06:10:24.905Z,4.40
2023-02-03T06:11:24.677Z,4.80
2023-02-03T06:12:24.660Z,4.30
2023-02-03T06:13:24.623Z,4.30
2023-02-03T06:14:24.598Z,4.70
2023-02-03T06:15:24.573Z,4.70
2023-02-03T06:16:24.603Z,4.90
2023-02-03T06:17:24.517Z,4.30
2023-02-03T06:18:24.490Z,4.30
2023-02-03T06:19:24.462Z,4.80
2023-02-03T06:20:24.436Z,4.40
2023-02-03T06:21:24.410Z,5.20
2023-02-03T06:22:24.383Z,4.40
2023-02-03T06:23:24.351Z,4.40
2023-02-03T06:24:24.325Z,4.10
2023-02-03T06:25:24.321Z,5.00
2023-02-03T06:26:24.272Z,4.20
2023-02-03T06:27:24.244Z,4.50
2023-02-03T06:28:24.216Z,5.20
2023-02-03T06:29:24.187Z,4.50
2023-02-03T06:30:24.162Z,5.70
2023-02-03T06:31:24.239Z,4.50
2023-02-03T06:32:24.108Z,4.50
2023-02-03T06:33:24.080Z,4.70
2023-02-03T06:34:24.055Z,4.30
2023-02-03T06:35:24.033Z,4.40
2023-02-03T06:36:24.011Z,4.30
2023-02-03T06:37:24.939Z,4.70
2023-02-03T06:38:23.949Z,4.70
2023-02-03T06:39:23.922Z,4.60
2023-02-03T06:40:23.896Z,4.40
2023-02-03T06:41:23.885Z,4.50
2023-02-03T06:42:23.838Z,5.40
2023-02-03T06:43:23.849Z,4.10
2023-02-03T06:44:23.787Z,3.90
2023-02-03T06:45:23.753Z,3.90
2023-02-03T06:46:23.752Z,4.70
2023-02-03T06:47:23.697Z,5.10
2023-02-03T06:48:23.679Z,4.40
2023-02-03T06:49:23.650Z,4.60
2023-02-03T06:50:23.622Z,4.50
2023-02-03T06:51:23.593Z,4.10
2023-02-03T06:52:23.572Z,4.70
2023-02-03T06:53:23.535Z,4.60
2023-02-03T06:54:23.524Z,4.00
2023-02-03T06:55:23.515Z,4.50
2023-02-03T06:56:23.465Z,5.00
2023-02-03T06:57:23.454Z,5.20
2023-02-03T06:58:23.406Z,4.80
2023-02-03T06:59:23.373Z,4.50
2023-02-03T07:00:23.349Z,4.50
2023-02-03T07:01:23.406Z,4.50
2023-02-03T07:02:23.394Z,4.20
2023-02-03T07:03:23.294Z,4.50
2023-02-03T07:04:23.245Z,4.80
2023-02-03T07:05:23.217Z,4.60
2023-02-03T07:06:23.193Z,4.60
2023-02-03T07:07:23.172Z,5.00
2023-02-03T07:08:23.137Z,4.40
2023-02-03T07:09:23.102Z,5.00
2023-02-03T07:10:23.078Z,5.00
2023-02-03T07:11:23.051Z,4.70
2023-02-03T07:12:23.022Z,4.50
2023-02-03T07:13:23.025Z,4.50
2023-02-03T07:14:22.972Z,4.60
2023-02-03T07:15:22.942Z,4.60
2023-02-03T07:16:22.951Z,4.20
2023-02-03T07:17:22.907Z,4.70
2023-02-03T07:18:45.528Z,4.50
2023-02-03T07:19:22.830Z,5.10
2023-02-03T07:20:22.839Z,4.40
2023-02-03T07:21:22.776Z,5.00
2023-02-03T07:22:22.756Z,4.60
2023-02-03T07:23:22.725Z,4.80
2023-02-03T07:24:22.706Z,4.80
2023-02-03T07:25:22.671Z,4.60
2023-02-03T07:26:22.644Z,5.10
2023-02-03T07:27:22.620Z,4.50
2023-02-03T07:28:22.603Z,4.60
2023-02-03T07:29:22.582Z,5.50
2023-02-03T07:30:22.593Z,4.80
2023-02-03T07:31:22.671Z,4.90
2023-02-03T07:32:22.484Z,5.00
2023-02-03T07:33:22.454Z,5.50
2023-02-03T07:34:22.426Z,5.20
2023-02-03T07:35:22.407Z,4.90
2023-02-03T07:36:22.377Z,5.90
2023-02-03T07:37:22.349Z,4.70
2023-02-03T07:38:22.316Z,5.50
2023-02-03T07:39:22.376Z,4.80
2023-02-03T07:40:22.358Z,5.40
2023-02-03T07:41:22.275Z,4.90
2023-02-03T07:42:22.284Z,5.30
2023-02-03T07:43:22.301Z,5.30
2023-02-03T07:44:22.171Z,4.80
2023-02-03T07:45:22.283Z,5.00
2023-02-03T07:46:22.190Z,5.10
2023-02-03T07:47:22.087Z,4.80
2023-02-03T07:48:22.113Z,5.40
2023-02-03T07:49:22.213Z,5.30
2023-02-03T07:50:22.062Z,5.30
2023-02-03T07:51:21.965Z,5.10
2023-02-03T07:52:22.185Z,4.70
2023-02-03T07:53:21.953Z,5.40
2023-02-03T07:54:21.892Z,5.50
2023-02-03T07:55:21.859Z,5.10
2023-02-03T07:56:21.845Z,5.00
2023-02-03T07:57:21.804Z,5.30
2023-02-03T07:58:21.783Z,5.30
2023-02-03T07:59:21.745Z,4.90
2023-02-03T08:00:21.726Z,5.50
2023-02-03T08:01:21.730Z,5.40
2023-02-03T08:02:21.687Z,5.40
2023-02-03T08:03:21.645Z,5.00
2023-02-03T08:04:21.612Z,5.10
2023-02-03T08:05:21.588Z,5.00
2023-02-03T08:06:21.571Z,5.40
2023-02-03T08:07:21.534Z,5.80
2023-02-03T08:08:21.509Z,5.00
2023-02-03T08:09:21.475Z,5.40
2023-02-03T08:10:21.458Z,5.40
2023-02-03T08:11:21.437Z,4.90
2023-02-03T08:12:21.413Z,5.70
2023-02-03T08:13:21.375Z,5.40
2023-02-03T08:14:21.345Z,5.10
2023-02-03T08:15:21.324Z,5.40
2023-02-03T08:16:21.400Z,5.70
2023-02-03T08:17:21.277Z,5.80
2023-02-03T08:18:21.234Z,5.10
2023-02-03T08:19:21.203Z,5.40
2023-02-03T08:20:21.178Z,5.70
2023-02-03T08:21:21.153Z,5.30
2023-02-03T08:22:21.349Z,5.40
2023-02-03T08:23:21.120Z,5.30
2023-02-03T08:24:21.071Z,5.90
2023-02-03T08:25:22.630Z,5.20
2023-02-03T08:26:21.017Z,5.40
2023-02-03T08:27:20.990Z,5.10
2023-02-03T08:28:21.032Z,5.20
2023-02-03T08:29:20.937Z,5.50
2023-02-03T08:30:20.912Z,5.00
2023-02-03T08:31:20.929Z,5.30
2023-02-03T08:32:20.909Z,4.80
2023-02-03T08:33:20.845Z,6.10
2023-02-03T08:34:20.802Z,5.40
2023-02-03T08:35:20.771Z,5.10
2023-02-03T08:36:20.746Z,5.40
2023-02-03T08:37:20.717Z,5.50
2023-02-03T08:38:20.699Z,5.40
2023-02-03T08:39:20.664Z,5.30
2023-02-03T08:40:20.641Z,5.50
2023-02-03T08:41:20.615Z,4.90
2023-02-03T08:42:20.586Z,5.30
2023-02-03T08:43:20.568Z,4.80
2023-02-03T08:44:20.531Z,5.40
2023-02-03T08:45:20.523Z,5.30
2023-02-03T08:46:20.480Z,5.20
2023-02-03T08:47:20.478Z,4.70
2023-02-03T08:48:20.423Z,4.60
2023-02-03T08:49:20.415Z,5.00
2023-02-03T08:50:20.370Z,5.20
2023-02-03T08:51:20.341Z,4.80
2023-02-03T08:52:20.314Z,5.80
2023-02-03T08:53:20.359Z,4.70
2023-02-03T08:54:20.259Z,5.90
2023-02-03T08:55:20.235Z,6.00
2023-02-03T08:56:20.204Z,6.30
2023-02-03T08:57:20.177Z,5.70
2023-02-03T08:58:20.149Z,5.70
2023-02-03T08:59:20.137Z,5.50
2023-02-03T09:00:20.100Z,5.60
2023-02-03T09:01:20.146Z,5.40
2023-02-03T09:02:20.065Z,5.50
2023-02-03T09:03:20.090Z,5.70
2023-02-03T09:04:20.005Z,5.40
2023-02-03T09:05:19.993Z,5.50
2023-02-03T09:06:22.754Z,5.90
2023-02-03T09:07:19.910Z,6.10
2023-02-03T09:08:19.881Z,5.90
2023-02-03T09:09:19.856Z,5.00
2023-02-03T09:10:19.830Z,5.40
2023-02-03T09:11:19.806Z,5.50
2023-02-03T09:12:19.771Z,5.10
2023-02-03T09:13:19.749Z,5.00
2023-02-03T09:14:19.717Z,5.20
2023-02-03T09:15:19.697Z,4.80
2023-02-03T09:16:19.721Z,4.60
2023-02-03T09:17:19.647Z,4.70
2023-02-03T09:18:19.610Z,5.40
2023-02-03T09:19:19.612Z,4.60
2023-02-03T09:20:19.626Z,5.00
2023-02-03T09:21:32.067Z,4.80
2023-02-03T09:22:19.581Z,5.10
2023-02-03T09:23:19.476Z,5.00
2023-02-03T09:24:19.455Z,4.90
2023-02-03T09:25:19.422Z,4.90
2023-02-03T09:26:19.444Z,4.80
2023-02-03T09:27:19.376Z,4.60
2023-02-03T09:28:19.414Z,4.90
2023-02-03T09:29:19.324Z,5.20
2023-02-03T09:30:19.292Z,4.40
2023-02-03T09:31:19.302Z,4.70
2023-02-03T09:32:19.233Z,5.00
2023-02-03T09:33:19.286Z,5.20
2023-02-03T09:34:19.287Z,4.30
2023-02-03T09:35:19.149Z,4.30
2023-02-03T09:36:19.124Z,4.40
2023-02-03T09:37:19.128Z,4.10
2023-02-03T09:38:19.070Z,4.80
2023-02-03T09:39:19.072Z,4.60
2023-02-03T09:40:19.025Z,4.70
2023-02-03T09:41:18.991Z,4.30
2023-02-03T09:42:18.963Z,4.30
2023-02-03T09:43:18.932Z,4.20
2023-02-03T09:44:18.905Z,4.10
2023-02-03T09:45:18.882Z,4.40
2023-02-03T09:46:18.917Z,4.40
2023-02-03T09:47:18.824Z,4.80
2023-02-03T09:48:18.799Z,5.00
2023-02-03T09:49:18.773Z,4.10
2023-02-03T09:50:18.744Z,3.90
2023-02-03T09:51:18.716Z,4.50
2023-02-03T09:52:18.699Z,4.50
2023-02-03T09:53:18.688Z,4.20
2023-02-03T09:54:18.635Z,3.80
2023-02-03T09:55:18.618Z,3.80
2023-02-03T09:56:18.582Z,4.20
2023-02-03T09:57:18.555Z,4.50
2023-02-03T09:58:18.528Z,4.10
2023-02-03T09:59:18.505Z,3.90
2023-02-03T10:00:18.476Z,4.00
2023-02-03T10:01:18.486Z,3.70
2023-02-03T10:02:18.828Z,4.10
2023-02-03T10:03:18.394Z,3.30
2023-02-03T10:04:18.367Z,3.70
2023-02-03T10:05:18.394Z,3.90
2023-02-03T10:06:18.311Z,3.80
2023-02-03T10:07:18.289Z,4.00
2023-02-03T10:08:18.258Z,3.80
2023-02-03T10:09:18.250Z,4.00
2023-02-03T10:10:18.207Z,3.60
2023-02-03T10:11:18.183Z,3.70
2023-02-03T10:12:18.150Z,3.50
2023-02-03T10:13:18.132Z,3.70
2023-02-03T10:14:18.097Z,3.60
2023-02-03T10:15:18.074Z,3.20
2023-02-03T10:16:18.080Z,3.90
2023-02-03T10:17:18.016Z,4.20
2023-02-03T10:18:17.989Z,3.90
2023-02-03T10:19:17.960Z,3.70
2023-02-03T10:20:17.934Z,3.60
2023-02-03T10:21:17.911Z,3.60
2023-02-03T10:22:17.880Z,3.40
2023-02-03T10:23:17.858Z,3.90
2023-02-03T10:24:17.831Z,3.80
2023-02-03T10:25:17.830Z,3.90
2023-02-03T10:26:17.778Z,3.50
2023-02-03T10:27:17.747Z,4.00
2023-02-03T10:28:17.849Z,3.50
2023-02-03T10:29:17.695Z,3.40
2023-02-03T10:30:17.740Z,3.50
2023-02-03T10:31:17.787Z,3.80
2023-02-03T10:32:17.612Z,3.60
2023-02-03T10:33:17.643Z,3.60
2023-02-03T10:34:17.558Z,3.30
2023-02-03T10:35:17.536Z,3.40
2023-02-03T10:36:17.512Z,3.60
2023-02-03T10:37:17.480Z,3.60
2023-02-03T10:38:17.448Z,3.70
2023-02-03T10:39:17.425Z,3.90
2023-02-03T10:40:17.403Z,3.30
2023-02-03T10:41:17.453Z,3.30
2023-02-03T10:42:17.340Z,3.90
2023-02-03T10:43:17.315Z,3.60
2023-02-03T10:44:17.291Z,3.60
2023-02-03T10:45:17.272Z,3.70
2023-02-03T10:46:17.308Z,3.50
2023-02-03T10:47:17.208Z,3.20
2023-02-03T10:48:17.195Z,3.40
2023-02-03T10:49:17.194Z,3.60
2023-02-03T10:50:17.195Z,3.80
2023-02-03T10:51:17.150Z,3.50
2023-02-03T10:52:17.109Z,3.20
2023-02-03T10:53:17.064Z,3.50
2023-02-03T10:54:17.021Z,3.50
2023-02-03T10:55:16.992Z,3.60
2023-02-03T10:56:16.966Z,3.60
2023-02-03T10:57:16.976Z,3.40
2023-02-03T10:58:16.921Z,4.00
2023-02-03T10:59:16.970Z,4.40
2023-02-03T11:00:16.884Z,3.50
2023-02-03T11:01:16.967Z,3.00
2023-02-03T11:02:16.921Z,3.90
2023-02-03T11:03:16.805Z,4.10
2023-02-03T11:04:16.785Z,3.30
2023-02-03T11:05:16.750Z,3.40
2023-02-03T11:06:16.738Z,3.70
2023-02-03T11:07:16.681Z,4.20
2023-02-03T11:08:16.649Z,3.80
2023-02-03T11:09:16.716Z,3.70
2023-02-03T11:10:16.639Z,3.50
2023-02-03T11:11:16.562Z,3.60
2023-02-03T11:12:16.546Z,3.80
2023-02-03T11:13:16.537Z,3.90
2023-02-03T11:14:16.509Z,4.10
2023-02-03T11:15:16.557Z,4.30
2023-02-03T11:16:16.517Z,4.40
2023-02-03T11:17:16.454Z,4.50
2023-02-03T11:18:16.428Z,3.80
2023-02-03T11:19:16.450Z,4.70
2023-02-03T11:20:16.418Z,4.20
2023-02-03T11:21:16.368Z,4.00
2023-02-03T11:22:16.285Z,5.00
2023-02-03T11:23:16.246Z,4.40
2023-02-03T11:24:16.218Z,3.70
2023-02-03T11:25:16.202Z,4.00
2023-02-03T11:26:16.176Z,3.70
2023-02-03T11:27:16.201Z,3.70
2023-02-03T11:28:16.199Z,3.80
2023-02-03T11:29:16.102Z,3.80
2023-02-03T11:30:16.090Z,3.90
2023-02-03T11:31:16.146Z,3.70
2023-02-03T11:32:16.055Z,3.60
2023-02-03T11:33:15.982Z,4.20
2023-02-03T11:34:16.011Z,3.70
2023-02-03T11:35:15.974Z,4.30
2023-02-03T11:36:15.955Z,4.00
2023-02-03T11:37:15.939Z,3.70
2023-02-03T11:38:15.863Z,4.20
2023-02-03T11:39:15.884Z,3.90
2023-02-03T11:40:15.815Z,4.00
2023-02-03T11:41:15.758Z,4.00
2023-02-03T11:42:15.730Z,4.00
2023-02-03T11:43:15.714Z,3.70
2023-02-03T11:44:15.711Z,3.70
2023-02-03T11:45:15.821Z,3.60
2023-02-03T11:46:15.682Z,3.90
2023-02-03T11:47:15.609Z,3.60
2023-02-03T11:48:15.567Z,3.30
2023-02-03T11:49:15.575Z,4.10
2023-02-03T11:50:15.544Z,4.20
2023-02-03T11:51:15.497Z,4.40
2023-02-03T11:52:15.466Z,4.50
2023-02-03T11:53:15.437Z,4.30
2023-02-03T11:54:15.405Z,4.60
2023-02-03T11:55:15.380Z,4.60
2023-02-03T11:56:15.351Z,4.70
2023-02-03T11:57:15.411Z,4.20
2023-02-03T11:58:15.308Z,4.80
2023-02-03T11:59:15.283Z,4.60
2023-02-03T12:00:15.251Z,3.90
2023-02-03T12:01:15.306Z,4.30
2023-02-03T12:02:15.270Z,4.60
2023-02-03T12:03:15.283Z,3.90
2023-02-03T12:04:15.243Z,3.80
2023-02-03T12:05:15.145Z,4.20
2023-02-03T12:06:15.119Z,4.20
2023-02-03T12:07:15.051Z,4.90
2023-02-03T12:08:15.028Z,4.10
2023-02-03T12:09:15.015Z,4.10
2023-02-03T12:10:14.984Z,3.90
2023-02-03T12:11:14.963Z,4.00
2023-02-03T12:12:14.952Z,3.80
2023-02-03T12:13:14.912Z,4.20
2023-02-03T12:14:14.879Z,4.60
2023-02-03T12:15:14.845Z,4.30
2023-02-03T12:16:14.919Z,3.40
2023-02-03T12:17:14.802Z,4.10
2023-02-03T12:18:14.751Z,3.80
2023-02-03T12:19:14.732Z,4.20
2023-02-03T12:20:14.698Z,3.80
2023-02-03T12:21:14.689Z,4.20
2023-02-03T12:22:14.644Z,3.80
2023-02-03T12:23:14.624Z,3.80
2023-02-03T12:24:14.588Z,3.50
2023-02-03T12:25:14.562Z,3.80
2023-02-03T12:26:14.536Z,3.70
2023-02-03T12:27:14.507Z,3.80
2023-02-03T12:28:27.447Z,3.60
2023-02-03T12:29:14.473Z,3.60
2023-02-03T12:30:14.429Z,4.00
2023-02-03T12:31:14.540Z,4.10
2023-02-03T12:32:14.376Z,3.30
2023-02-03T12:33:14.368Z,4.30
2023-02-03T12:34:14.320Z,3.90
2023-02-03T12:35:14.294Z,4.30
2023-02-03T12:36:14.262Z,3.70
2023-02-03T12:37:14.239Z,3.70
2023-02-03T12:38:14.209Z,3.50
2023-02-03T12:39:14.189Z,3.10
2023-02-03T12:40:14.158Z,3.90
2023-02-03T12:41:14.130Z,3.30
2023-02-03T12:42:14.100Z,3.80
2023-02-03T12:43:14.077Z,3.20
2023-02-03T12:44:14.050Z,3.30
2023-02-03T12:45:14.019Z,5.00
2023-02-03T12:46:14.055Z,4.00
2023-02-03T12:47:13.966Z,3.60
2023-02-03T12:48:13.936Z,4.10
2023-02-03T12:49:13.930Z,4.70
2023-02-03T12:50:13.885Z,5.00
2023-02-03T12:51:13.859Z,4.70
2023-02-03T12:52:13.829Z,3.70
2023-02-03T12:53:13.801Z,3.90
2023-02-03T12:54:13.772Z,5.00
2023-02-03T12:55:13.773Z,4.00
2023-02-03T12:56:13.721Z,4.30
2023-02-03T12:57:13.697Z,4.40
2023-02-03T12:58:13.679Z,4.60
2023-02-03T12:59:13.641Z,4.40
2023-02-03T13:00:13.615Z,4.00
2023-02-03T13:01:13.737Z,4.40
2023-02-03T13:02:13.601Z,4.20
2023-02-03T13:03:13.542Z,4.50
2023-02-03T13:04:13.501Z,4.20
2023-02-03T13:05:13.498Z,4.00
2023-02-03T13:06:13.449Z,3.80
2023-02-03T13:07:13.417Z,4.20
2023-02-03T13:08:13.399Z,5.10
2023-02-03T13:09:13.365Z,4.00
2023-02-03T13:10:13.335Z,4.60
2023-02-03T13:11:15.259Z,4.90
2023-02-03T13:12:13.284Z,4.30
2023-02-03T13:13:13.257Z,3.80
2023-02-03T13:14:13.231Z,4.20
2023-02-03T13:15:13.206Z,4.60